KPWD/PWD METAR and TAF weather

Enter ICAO airport designator
Station Type Date Time Source
KPWD METAR 2021/09/28 04:35 UTC NOAA

KPWD 280435Z AUTO 08004KT 10SM CLR 15/M01 A2971 RMK A01


Station Type Date Time Source
KPWD Decoded METAR 2021/09/28 04:35 UTC NOAA

Station name not available
Sep 28, 2021 - 12:35 AM EDT / 2021.09.28 0435 UTC
Wind: from the E (080 degrees) at 5 MPH (4 KT):0
Visibility: 10 mile(s):0
Sky conditions: clear
Temperature: 59 F (15 C)
Dew Point: 30 F (-1 C)
Relative Humidity: 33%
Pressure (altimeter): 29.71 in. Hg (1006 hPa)
ob: KPWD 280435Z AUTO 08004KT 10SM CLR 15/M01 A2971 RMK A01
cycle: 4

Station Type Date Time Source
KPWD TAF UTC NOAA

Error!

Example: see airport list